createdAt,value
2023-02-24T00:00:51.362Z,7.90
2023-02-24T00:04:54.847Z,8.00
2023-02-24T00:08:58.198Z,8.00
2023-02-24T00:13:05.483Z,8.00
2023-02-24T00:17:10.710Z,8.10
2023-02-24T00:21:16.196Z,8.10
2023-02-24T00:25:19.370Z,8.10
2023-02-24T00:29:27.942Z,8.00
2023-02-24T00:33:33.312Z,8.00
2023-02-24T00:37:37.507Z,8.00
2023-02-24T00:41:43.292Z,8.00
2023-02-24T00:45:47.719Z,7.90
2023-02-24T00:49:51.406Z,7.80
2023-02-24T00:53:59.183Z,7.80
2023-02-24T00:58:02.097Z,7.70
2023-02-24T01:02:07.694Z,7.70
2023-02-24T01:06:12.084Z,7.80
2023-02-24T01:10:18.347Z,7.80
2023-02-24T01:14:35.070Z,7.80
2023-02-24T01:18:39.440Z,7.80
2023-02-24T01:22:46.204Z,7.90
2023-02-24T01:26:52.348Z,7.90
2023-02-24T01:30:56.064Z,7.90
2023-02-24T01:35:06.194Z,7.90
2023-02-24T01:39:11.052Z,7.90
2023-02-24T01:43:17.735Z,7.90
2023-02-24T01:47:21.804Z,7.90
2023-02-24T01:51:34.569Z,7.90
2023-02-24T01:55:43.189Z,8.00
2023-02-24T01:59:55.155Z,8.00
2023-02-24T02:04:05.621Z,8.00
2023-02-24T02:08:13.768Z,8.10
2023-02-24T02:12:17.425Z,8.00
2023-02-24T02:16:52.175Z,8.00
2023-02-24T02:21:15.410Z,8.00
2023-02-24T02:25:28.031Z,8.00
2023-02-24T02:30:00.836Z,7.90
2023-02-24T02:34:32.905Z,7.90
2023-02-24T02:38:45.511Z,7.90
2023-02-24T02:42:56.497Z,7.80
2023-02-24T02:47:09.079Z,7.80
2023-02-24T02:51:18.387Z,7.80
2023-02-24T02:55:31.026Z,7.90
2023-02-24T02:59:38.782Z,7.80
2023-02-24T03:03:46.899Z,7.80
2023-02-24T03:07:56.916Z,7.80
2023-02-24T03:12:02.978Z,7.80
2023-02-24T03:16:10.306Z,7.80
2023-02-24T03:20:22.940Z,7.70
2023-02-24T03:24:30.167Z,7.70
2023-02-24T03:28:37.612Z,7.80
2023-02-24T03:32:51.286Z,7.90
2023-02-24T03:36:55.734Z,8.00
2023-02-24T03:41:03.276Z,8.00
2023-02-24T03:45:09.998Z,8.10
2023-02-24T03:49:16.712Z,8.10
2023-02-24T03:53:32.040Z,8.20
2023-02-24T03:57:56.914Z,8.20
2023-02-24T04:02:05.324Z,8.20
2023-02-24T04:06:15.215Z,8.20
2023-02-24T04:10:23.149Z,8.20
2023-02-24T04:14:32.443Z,8.30
2023-02-24T04:18:40.865Z,8.30
2023-02-24T04:22:51.768Z,8.30
2023-02-24T04:26:58.965Z,8.30
2023-02-24T04:31:07.699Z,8.40
2023-02-24T04:35:16.798Z,8.40
2023-02-24T04:39:21.349Z,8.40
2023-02-24T04:43:26.646Z,8.40
2023-02-24T04:47:37.329Z,8.40
2023-02-24T04:51:43.226Z,8.50
2023-02-24T04:55:50.740Z,8.50
2023-02-24T04:59:54.551Z,8.50
2023-02-24T05:04:02.535Z,8.50
2023-02-24T05:08:08.076Z,8.50
2023-02-24T05:12:15.730Z,8.50
2023-02-24T05:16:20.603Z,8.50
2023-02-24T05:20:42.531Z,8.50
2023-02-24T05:24:48.956Z,8.40
2023-02-24T05:28:54.754Z,8.40
2023-02-24T05:32:58.987Z,8.40
2023-02-24T05:37:10.699Z,8.40
2023-02-24T05:41:18.371Z,8.30
2023-02-24T05:45:21.536Z,8.20
2023-02-24T05:49:28.988Z,8.10
2023-02-24T05:53:36.773Z,8.20
2023-02-24T05:57:40.011Z,8.20
2023-02-24T06:01:49.821Z,8.20
2023-02-24T06:05:58.219Z,8.20
2023-02-24T06:10:10.111Z,8.20
2023-02-24T06:14:16.172Z,8.20
2023-02-24T06:18:21.781Z,8.20
2023-02-24T06:22:26.826Z,8.20
2023-02-24T06:26:43.480Z,8.20
2023-02-24T06:30:56.312Z,8.20
2023-02-24T06:35:05.161Z,8.20
2023-02-24T06:39:10.724Z,8.20
2023-02-24T06:43:22.797Z,8.20
2023-02-24T06:47:26.994Z,8.20
2023-02-24T06:51:30.415Z,8.50
2023-02-24T06:55:35.651Z,8.70
2023-02-24T06:59:40.478Z,8.70
2023-02-24T07:04:03.483Z,8.70
2023-02-24T07:08:10.195Z,8.70
2023-02-24T07:12:13.887Z,8.80
2023-02-24T07:16:20.898Z,8.80
2023-02-24T07:20:26.296Z,9.00
2023-02-24T07:24:36.330Z,9.00
2023-02-24T07:28:41.128Z,9.00
2023-02-24T07:32:48.693Z,9.00
2023-02-24T07:36:56.071Z,9.10
2023-02-24T07:40:59.331Z,9.20
2023-02-24T07:45:04.887Z,9.40
2023-02-24T07:49:15.634Z,9.40
2023-02-24T07:53:19.211Z,9.40
2023-02-24T07:57:25.265Z,9.50
2023-02-24T08:01:38.974Z,9.60
2023-02-24T08:05:46.169Z,9.60
2023-02-24T08:10:09.257Z,9.60
2023-02-24T08:14:19.486Z,9.60
2023-02-24T08:18:22.763Z,9.60
2023-02-24T08:22:31.047Z,9.70
2023-02-24T08:26:47.341Z,9.90
2023-02-24T08:30:52.809Z,10.00
2023-02-24T08:35:03.023Z,10.10
2023-02-24T08:39:09.661Z,10.20
2023-02-24T08:43:33.074Z,10.30
2023-02-24T08:47:36.559Z,10.50
2023-02-24T08:51:46.501Z,10.60
2023-02-24T08:55:52.403Z,10.60
2023-02-24T08:59:58.872Z,10.70
2023-02-24T09:04:08.012Z,10.80
2023-02-24T09:08:15.689Z,10.90
2023-02-24T09:12:24.880Z,10.90
2023-02-24T09:16:29.328Z,11.00
2023-02-24T09:20:51.536Z,11.20
2023-02-24T09:25:14.606Z,11.40
2023-02-24T09:29:34.973Z,11.50
2023-02-24T09:33:41.902Z,11.20
2023-02-24T09:37:48.361Z,11.10
2023-02-24T09:42:25.264Z,11.10
2023-02-24T09:46:38.036Z,11.00
2023-02-24T09:51:04.655Z,11.10
2023-02-24T09:55:26.240Z,11.00
2023-02-24T09:59:34.849Z,11.30
2023-02-24T10:03:48.354Z,11.60
2023-02-24T10:07:53.293Z,11.70
2023-02-24T10:12:04.545Z,11.80
2023-02-24T10:16:24.142Z,11.80
2023-02-24T10:20:42.763Z,11.80
2023-02-24T10:24:50.917Z,11.70
2023-02-24T10:29:11.355Z,11.60
2023-02-24T10:33:25.489Z,11.50
2023-02-24T10:37:34.380Z,11.40
2023-02-24T10:41:57.564Z,11.30
2023-02-24T10:46:26.298Z,11.20
2023-02-24T10:50:55.345Z,11.10
2023-02-24T10:55:09.778Z,11.20
2023-02-24T10:59:31.829Z,11.10
2023-02-24T11:03:42.281Z,11.20
2023-02-24T11:07:59.252Z,11.40
2023-02-24T11:12:31.698Z,11.50
2023-02-24T11:17:01.906Z,11.60
2023-02-24T11:21:07.316Z,12.00
2023-02-24T11:25:24.278Z,12.00
2023-02-24T11:29:43.785Z,11.90
2023-02-24T11:33:59.706Z,11.70
2023-02-24T11:38:12.247Z,11.60
2023-02-24T11:42:19.628Z,11.50
2023-02-24T11:46:36.558Z,11.40
2023-02-24T11:50:49.910Z,11.30
2023-02-24T11:54:58.378Z,11.30
2023-02-24T11:59:10.089Z,11.30
2023-02-24T12:03:27.268Z,11.10
2023-02-24T12:07:36.308Z,11.00
2023-02-24T12:11:50.088Z,10.90
2023-02-24T12:16:00.318Z,10.70
2023-02-24T12:20:14.586Z,10.50
2023-02-24T12:24:18.153Z,10.30
2023-02-24T12:28:34.154Z,10.30
2023-02-24T12:32:52.547Z,10.20
2023-02-24T12:37:20.244Z,10.20
2023-02-24T12:41:40.836Z,10.20
2023-02-24T12:45:54.001Z,10.10
2023-02-24T12:50:12.557Z,10.10
2023-02-24T12:54:25.102Z,10.10
2023-02-24T12:58:34.275Z,10.10
2023-02-24T13:02:52.100Z,10.30
2023-02-24T13:07:12.657Z,10.30
2023-02-24T13:11:24.039Z,10.40
2023-02-24T13:15:35.327Z,10.60
2023-02-24T13:19:40.074Z,10.60
2023-02-24T13:23:44.278Z,10.70
2023-02-24T13:28:00.048Z,10.70
2023-02-24T13:32:03.562Z,10.70
2023-02-24T13:36:14.235Z,10.60
2023-02-24T13:40:26.889Z,10.50
2023-02-24T13:44:35.742Z,10.70
2023-02-24T13:48:54.107Z,10.80
2023-02-24T13:53:14.944Z,10.80
2023-02-24T13:57:47.715Z,10.90
2023-02-24T14:01:59.025Z,10.90
2023-02-24T14:06:04.395Z,10.80
2023-02-24T14:10:19.200Z,10.90
2023-02-24T14:14:22.593Z,11.00
2023-02-24T14:18:29.750Z,11.20
2023-02-24T14:22:45.032Z,11.40
2023-02-24T14:26:51.346Z,11.30
2023-02-24T14:31:01.064Z,11.10
2023-02-24T14:35:07.220Z,11.20
2023-02-24T14:39:17.908Z,11.30
2023-02-24T14:43:21.013Z,11.20
2023-02-24T14:47:30.804Z,11.20
2023-02-24T14:51:37.172Z,11.30
2023-02-24T14:55:43.393Z,11.30
2023-02-24T14:59:54.997Z,11.40
2023-02-24T15:04:13.415Z,11.40
2023-02-24T15:08:28.586Z,11.30
2023-02-24T15:12:34.417Z,11.20
2023-02-24T15:16:44.159Z,11.00
2023-02-24T15:20:47.412Z,10.80
2023-02-24T15:24:52.889Z,10.80
2023-02-24T15:29:01.815Z,10.80
2023-02-24T15:33:11.345Z,10.80
2023-02-24T15:37:17.648Z,10.70
2023-02-24T15:41:27.629Z,10.70
2023-02-24T15:45:33.003Z,10.70
2023-02-24T15:49:36.195Z,10.60
2023-02-24T15:53:40.376Z,10.60
2023-02-24T15:57:46.141Z,10.60
2023-02-24T16:01:49.353Z,10.50
2023-02-24T16:05:52.402Z,10.50
2023-02-24T16:10:00.278Z,10.40
2023-02-24T16:14:04.970Z,10.40
2023-02-24T16:18:20.987Z,10.30
2023-02-24T16:22:25.791Z,10.30
2023-02-24T16:26:28.966Z,10.20
2023-02-24T16:30:35.647Z,10.20
2023-02-24T16:34:38.801Z,10.20
2023-02-24T16:38:45.272Z,10.10
2023-02-24T16:42:48.949Z,10.10
2023-02-24T16:46:53.697Z,10.00
2023-02-24T16:50:57.072Z,9.90
2023-02-24T16:55:02.242Z,9.80
2023-02-24T16:59:05.397Z,9.70
2023-02-24T17:03:21.377Z,9.70
2023-02-24T17:07:24.411Z,9.60
2023-02-24T17:11:29.788Z,9.60
2023-02-24T17:15:33.601Z,9.60
2023-02-24T17:19:38.903Z,9.70
2023-02-24T17:23:42.569Z,9.70
2023-02-24T17:27:46.272Z,9.70
2023-02-24T17:31:49.433Z,9.60
2023-02-24T17:35:59.632Z,9.40
2023-02-24T17:40:06.557Z,9.40
2023-02-24T17:44:12.698Z,9.30
2023-02-24T17:48:16.720Z,9.20
2023-02-24T17:52:22.140Z,9.10
2023-02-24T17:56:25.284Z,9.10
2023-02-24T18:00:28.676Z,9.00
2023-02-24T18:04:35.964Z,8.90
2023-02-24T18:08:41.312Z,8.90
2023-02-24T18:12:44.466Z,8.80
2023-02-24T18:16:47.530Z,8.80
2023-02-24T18:20:50.572Z,8.80
2023-02-24T18:24:55.045Z,8.70
2023-02-24T18:28:58.955Z,8.70
2023-02-24T18:33:02.257Z,8.70
2023-02-24T18:37:06.638Z,8.80
2023-02-24T18:41:14.334Z,8.80
2023-02-24T18:45:17.810Z,8.80
2023-02-24T18:49:23.902Z,8.80
2023-02-24T18:53:29.459Z,8.70
2023-02-24T18:57:37.363Z,8.70
2023-02-24T19:01:40.859Z,8.60
2023-02-24T19:05:47.666Z,8.60
2023-02-24T19:09:51.090Z,8.60
2023-02-24T19:14:01.390Z,8.60
2023-02-24T19:18:09.029Z,8.70
2023-02-24T19:22:17.073Z,8.80
2023-02-24T19:26:24.876Z,8.80
2023-02-24T19:30:29.478Z,8.50
2023-02-24T19:34:35.164Z,8.00
2023-02-24T19:38:45.966Z,7.70
2023-02-24T19:42:51.991Z,7.50
2023-02-24T19:46:59.629Z,7.30
2023-02-24T19:51:10.691Z,7.30
2023-02-24T19:55:17.463Z,7.20
2023-02-24T19:59:20.561Z,7.20
2023-02-24T20:03:28.996Z,7.20
2023-02-24T20:07:38.913Z,7.10
2023-02-24T20:11:42.365Z,7.10
2023-02-24T20:15:57.085Z,7.00
2023-02-24T20:20:04.569Z,6.90
2023-02-24T20:24:11.509Z,6.80
2023-02-24T20:28:15.592Z,6.80
2023-02-24T20:32:22.339Z,6.70
2023-02-24T20:36:28.440Z,6.60
2023-02-24T20:40:34.277Z,6.60
2023-02-24T20:44:37.429Z,6.50
2023-02-24T20:48:40.536Z,6.50
2023-02-24T20:52:45.033Z,6.50
2023-02-24T20:56:51.253Z,6.50
2023-02-24T21:00:54.346Z,6.60
2023-02-24T21:04:57.540Z,6.60
2023-02-24T21:09:08.902Z,6.60
2023-02-24T21:13:12.711Z,6.60
2023-02-24T21:17:18.151Z,6.60
2023-02-24T21:21:26.673Z,6.60
2023-02-24T21:25:32.305Z,6.50
2023-02-24T21:29:38.146Z,6.40
2023-02-24T21:33:41.300Z,6.30
2023-02-24T21:37:58.033Z,6.00
2023-02-24T21:42:31.843Z,5.80
2023-02-24T21:46:38.620Z,5.60
2023-02-24T21:50:44.956Z,5.40
2023-02-24T21:54:50.926Z,5.30
2023-02-24T21:59:00.312Z,5.20
2023-02-24T22:03:03.409Z,5.10
2023-02-24T22:07:06.536Z,5.00
2023-02-24T22:11:13.878Z,4.90
2023-02-24T22:15:18.794Z,4.80
2023-02-24T22:19:26.813Z,4.80
2023-02-24T22:23:32.567Z,4.80
2023-02-24T22:27:40.031Z,4.70
2023-02-24T22:31:49.859Z,4.80
2023-02-24T22:35:55.280Z,4.80
2023-02-24T22:40:03.967Z,4.70
2023-02-24T22:44:07.485Z,4.70
2023-02-24T22:48:12.077Z,4.70
2023-02-24T22:52:16.867Z,4.60
2023-02-24T22:56:23.198Z,4.60
2023-02-24T23:00:27.118Z,4.60
2023-02-24T23:04:31.840Z,4.60
2023-02-24T23:08:37.952Z,4.60
2023-02-24T23:12:43.915Z,4.60
2023-02-24T23:16:53.648Z,4.60
2023-02-24T23:21:00.998Z,4.60
2023-02-24T23:25:04.005Z,4.60
2023-02-24T23:29:08.255Z,4.60
2023-02-24T23:33:11.457Z,4.50
2023-02-24T23:37:21.700Z,4.50
2023-02-24T23:41:27.782Z,4.50
2023-02-24T23:45:30.985Z,4.50
2023-02-24T23:49:47.846Z,4.50
2023-02-24T23:53:53.388Z,4.50
2023-02-24T23:57:59.190Z,4.50
